Time;durP1;ratioP1;P1;durP2;ratioP2;P2;SDS_P1;SDS_P2;PMS_P1;PMS_P2;Temp;Humidity;BMP_temperature;BMP_pressure;BME280_temperature;BME280_humidity;BME280_pressure;Samples;Min_cycle;Max_cycle;Signal;HPM_P1;HPM_P2
2023/10/31 00:02:14;;;;;;;13.80;4.10;;;9.50;86.60;;;;;;5047881;28;20051;-64
2023/10/31 00:04:39;;;;;;;12.77;3.40;;;9.50;86.60;;;;;;5041519;28;20100;-64
2023/10/31 00:07:05;;;;;;;12.70;3.40;;;9.40;86.60;;;;;;5048848;28;20048;-65
2023/10/31 00:09:31;;;;;;;8.23;3.00;;;9.40;86.70;;;;;;5050310;28;20051;-65
2023/10/31 00:11:58;;;;;;;9.40;3.47;;;9.40;86.80;;;;;;5050161;28;20071;-64
2023/10/31 00:14:23;;;;;;;9.67;3.80;;;9.40;86.80;;;;;;5049982;28;20044;-64
2023/10/31 00:16:49;;;;;;;10.00;4.37;;;9.40;86.80;;;;;;5049926;28;20453;-65
2023/10/31 00:19:15;;;;;;;8.83;4.03;;;9.40;86.80;;;;;;5048576;28;20052;-64
2023/10/31 00:21:40;;;;;;;10.70;4.07;;;9.40;86.80;;;;;;5050079;28;20098;-64
2023/10/31 00:24:06;;;;;;;9.07;3.80;;;9.40;86.90;;;;;;5049704;28;20056;-64
2023/10/31 00:26:32;;;;;;;10.07;4.27;;;9.40;86.90;;;;;;5049848;28;20087;-64
2023/10/31 00:28:58;;;;;;;21.63;5.00;;;9.40;87.00;;;;;;5048957;28;20080;-65
2023/10/31 00:31:23;;;;;;;12.70;5.70;;;9.40;87.00;;;;;;5035315;28;20049;-65
2023/10/31 00:33:49;;;;;;;18.43;5.80;;;9.40;87.10;;;;;;5048698;28;20564;-65
2023/10/31 00:36:15;;;;;;;12.27;5.93;;;9.40;87.10;;;;;;5047907;28;20045;-65
2023/10/31 00:38:40;;;;;;;19.40;5.50;;;9.40;87.00;;;;;;5042313;28;20052;-64
2023/10/31 00:41:06;;;;;;;16.37;5.40;;;9.40;87.20;;;;;;5046469;28;20044;-63
2023/10/31 00:43:32;;;;;;;13.33;5.77;;;9.40;87.10;;;;;;5048605;28;20262;-64
2023/10/31 00:45:58;;;;;;;10.50;4.90;;;9.40;87.20;;;;;;5049561;28;20048;-64
2023/10/31 00:48:23;;;;;;;18.80;6.53;;;9.40;87.20;;;;;;5049534;28;20057;-65
2023/10/31 00:50:49;;;;;;;15.10;5.90;;;9.40;87.30;;;;;;5049755;28;20052;-65
2023/10/31 00:53:16;;;;;;;21.43;6.30;;;9.40;87.20;;;;;;5048613;28;20037;-65
2023/10/31 00:55:42;;;;;;;15.93;5.97;;;9.40;87.30;;;;;;5047941;28;20064;-65
2023/10/31 00:58:08;;;;;;;12.63;4.63;;;9.40;87.20;;;;;;5044316;28;20124;-65
2023/10/31 01:00:34;;;;;;;13.80;4.80;;;9.40;87.20;;;;;;5046271;28;20400;-65
2023/10/31 01:03:00;;;;;;;14.03;4.60;;;9.40;87.20;;;;;;5042308;28;20041;-65
2023/10/31 01:05:28;;;;;;;11.87;3.87;;;9.40;87.30;;;;;;5048358;28;20045;-65
2023/10/31 01:07:54;;;;;;;12.57;3.50;;;9.40;87.30;;;;;;5049320;28;20083;-65
2023/10/31 01:10:20;;;;;;;12.27;2.77;;;9.40;87.40;;;;;;5048942;28;20041;-65
2023/10/31 01:12:45;;;;;;;18.63;3.00;;;9.40;87.30;;;;;;5039312;28;20047;-64
2023/10/31 01:15:11;;;;;;;13.73;2.73;;;9.30;87.30;;;;;;5048904;28;20447;-65
2023/10/31 01:17:37;;;;;;;18.07;2.90;;;9.20;87.30;;;;;;5048775;28;20140;-65
2023/10/31 01:20:03;;;;;;;12.07;3.00;;;9.20;87.20;;;;;;5048141;28;20057;-65
2023/10/31 01:22:28;;;;;;;12.30;3.33;;;9.20;87.30;;;;;;5047644;28;20094;-65
2023/10/31 01:24:54;;;;;;;10.30;2.73;;;9.20;87.30;;;;;;5048771;28;20071;-65
2023/10/31 01:27:20;;;;;;;12.87;2.63;;;9.20;87.40;;;;;;5049475;28;20084;-65
2023/10/31 01:29:45;;;;;;;10.17;2.70;;;9.20;87.40;;;;;;5048344;28;20037;-65
2023/10/31 01:32:11;;;;;;;10.97;2.67;;;9.20;87.50;;;;;;5049008;28;20056;-65
2023/10/31 01:34:37;;;;;;;7.27;2.40;;;9.20;87.40;;;;;;5048493;28;20076;-65
2023/10/31 01:37:03;;;;;;;7.27;2.10;;;9.20;87.50;;;;;;5048922;28;20084;-65
2023/10/31 01:39:29;;;;;;;8.97;2.23;;;9.20;87.40;;;;;;5048208;28;20041;-65
2023/10/31 01:41:54;;;;;;;7.17;2.00;;;9.20;87.40;;;;;;5048924;28;20106;-66
2023/10/31 01:44:20;;;;;;;11.03;2.00;;;9.10;87.30;;;;;;5048544;28;20068;-66
2023/10/31 01:46:46;;;;;;;12.30;2.23;;;9.00;87.40;;;;;;5048021;28;20049;-66
2023/10/31 01:49:13;;;;;;;9.73;2.03;;;9.10;87.40;;;;;;5051907;28;20124;-65
2023/10/31 01:51:40;;;;;;;11.43;2.20;;;9.00;87.40;;;;;;5052298;28;20049;-65
2023/10/31 01:54:08;;;;;;;15.23;2.93;;;9.00;87.50;;;;;;5051292;28;20045;-65
2023/10/31 01:56:34;;;;;;;13.43;2.53;;;9.00;87.50;;;;;;5043851;28;20122;-65
2023/10/31 01:59:00;;;;;;;15.67;2.77;;;9.00;87.50;;;;;;5052412;28;20500;-65
2023/10/31 02:01:26;;;;;;;12.03;2.70;;;9.00;87.50;;;;;;5052377;28;20076;-64
2023/10/31 02:03:53;;;;;;;16.00;2.80;;;9.00;87.60;;;;;;5051546;28;20053;-64
2023/10/31 02:06:19;;;;;;;15.40;3.07;;;9.00;87.50;;;;;;5052330;28;20230;-64
2023/10/31 02:08:46;;;;;;;8.33;2.93;;;9.00;87.60;;;;;;5051691;28;20407;-64
2023/10/31 02:11:12;;;;;;;16.53;3.30;;;9.00;87.60;;;;;;5040582;28;20068;-64
2023/10/31 02:13:38;;;;;;;15.13;3.57;;;9.00;87.70;;;;;;5050980;28;20045;-64
2023/10/31 02:16:04;;;;;;;12.10;3.53;;;9.00;87.70;;;;;;5051554;28;20106;-64
2023/10/31 02:18:29;;;;;;;12.60;3.80;;;9.00;87.70;;;;;;5051163;28;20140;-65
2023/10/31 02:20:55;;;;;;;14.00;4.03;;;9.00;87.70;;;;;;5051519;28;20049;-64
2023/10/31 02:23:21;;;;;;;14.47;4.43;;;9.00;87.80;;;;;;5052803;28;20048;-64
2023/10/31 02:25:46;;;;;;;16.17;4.60;;;9.00;87.80;;;;;;5051778;28;20119;-65
2023/10/31 02:28:12;;;;;;;19.30;5.03;;;9.00;87.90;;;;;;5051453;28;20051;-64
2023/10/31 02:30:37;;;;;;;13.43;4.50;;;9.00;87.80;;;;;;5051789;28;20041;-64
2023/10/31 02:33:03;;;;;;;14.63;5.67;;;9.00;87.80;;;;;;5051672;28;20044;-64
2023/10/31 02:35:29;;;;;;;20.33;5.23;;;9.00;87.90;;;;;;5052148;28;20043;-65
2023/10/31 02:37:54;;;;;;;21.33;6.30;;;9.00;88.00;;;;;;5052043;28;20515;-64
2023/10/31 02:40:20;;;;;;;17.80;6.80;;;9.00;88.00;;;;;;5050978;28;20484;-65
2023/10/31 02:42:46;;;;;;;22.47;6.67;;;9.00;88.00;;;;;;5051763;28;20118;-65
2023/10/31 02:45:12;;;;;;;15.17;5.30;;;9.00;88.00;;;;;;5051819;28;20075;-64
2023/10/31 02:47:38;;;;;;;22.07;6.77;;;9.00;88.10;;;;;;5052028;28;20045;-65
2023/10/31 02:50:04;;;;;;;21.60;6.23;;;9.00;88.10;;;;;;5051999;28;20048;-65
2023/10/31 02:52:29;;;;;;;20.30;5.97;;;9.00;88.10;;;;;;5049735;28;20047;-64
2023/10/31 02:54:55;;;;;;;15.03;6.00;;;9.00;88.10;;;;;;5052060;28;20116;-64
2023/10/31 02:57:20;;;;;;;18.40;5.77;;;9.00;88.20;;;;;;5051539;28;20055;-65
2023/10/31 02:59:46;;;;;;;11.37;5.70;;;9.00;88.20;;;;;;5049752;28;20045;-65
2023/10/31 03:02:12;;;;;;;18.43;6.43;;;9.00;88.20;;;;;;5051450;28;20056;-64
2023/10/31 03:04:38;;;;;;;21.40;6.93;;;9.00;88.20;;;;;;5042694;28;20046;-65
2023/10/31 03:07:04;;;;;;;16.23;6.10;;;9.00;88.30;;;;;;5049236;28;20055;-64
2023/10/31 03:09:29;;;;;;;18.20;7.20;;;9.00;88.30;;;;;;5051445;28;20124;-64
2023/10/31 03:11:55;;;;;;;16.23;6.90;;;9.00;88.30;;;;;;5049882;28;20072;-65
2023/10/31 03:14:21;;;;;;;19.37;7.20;;;9.00;88.40;;;;;;5048867;28;20094;-64
2023/10/31 03:16:46;;;;;;;18.20;8.43;;;9.00;88.50;;;;;;5050880;28;20041;-64
2023/10/31 03:19:12;;;;;;;25.53;8.93;;;9.00;88.60;;;;;;5050067;28;20578;-65
2023/10/31 03:21:38;;;;;;;19.57;8.97;;;9.00;88.70;;;;;;5050230;28;20079;-65
2023/10/31 03:24:04;;;;;;;20.37;9.23;;;9.00;88.70;;;;;;5051220;28;20084;-65
2023/10/31 03:26:29;;;;;;;23.63;9.77;;;9.00;88.80;;;;;;5050757;28;20160;-65
2023/10/31 03:28:57;;;;;;;22.23;9.87;;;9.10;88.90;;;;;;5050930;28;20465;-65
2023/10/31 03:31:23;;;;;;;24.20;10.10;;;9.00;88.90;;;;;;5050739;28;20119;-64
2023/10/31 03:33:51;;;;;;;22.03;10.47;;;9.10;88.90;;;;;;5050891;28;20041;-64
2023/10/31 03:36:17;;;;;;;20.97;10.57;;;9.10;88.90;;;;;;5051084;28;20420;-64
2023/10/31 03:38:43;;;;;;;23.00;10.40;;;9.10;89.00;;;;;;5050699;28;20044;-64
2023/10/31 03:41:09;;;;;;;16.90;9.80;;;9.10;89.10;;;;;;5050435;28;20033;-64
2023/10/31 03:43:34;;;;;;;19.13;9.63;;;9.20;89.10;;;;;;5050747;28;20068;-65
2023/10/31 03:46:00;;;;;;;21.80;10.00;;;9.20;89.10;;;;;;5049710;28;20052;-64
2023/10/31 03:48:26;;;;;;;18.77;9.07;;;9.20;89.20;;;;;;5044827;28;20037;-64
2023/10/31 03:50:52;;;;;;;23.13;8.47;;;9.20;89.30;;;;;;5050655;28;20190;-64
2023/10/31 03:53:18;;;;;;;22.83;8.00;;;9.20;89.20;;;;;;5050370;28;20595;-64
2023/10/31 03:55:44;;;;;;;19.97;8.63;;;9.20;89.30;;;;;;5049559;28;20155;-64
2023/10/31 03:58:09;;;;;;;20.50;7.93;;;9.30;89.20;;;;;;5049884;28;20155;-64
2023/10/31 04:00:35;;;;;;;17.63;7.80;;;9.30;89.30;;;;;;5050600;28;20041;-64
2023/10/31 04:03:01;;;;;;;22.17;8.07;;;9.30;89.30;;;;;;5050003;28;20048;-64
2023/10/31 04:05:27;;;;;;;17.97;7.03;;;9.30;89.20;;;;;;5040034;28;20048;-64
2023/10/31 04:07:52;;;;;;;16.70;6.87;;;9.40;89.30;;;;;;5050104;28;20041;-65
2023/10/31 04:10:19;;;;;;;15.33;7.37;;;9.40;89.20;;;;;;5048998;28;20068;-65
2023/10/31 04:12:45;;;;;;;18.77;7.60;;;9.30;89.20;;;;;;5050201;28;20045;-64
2023/10/31 04:15:11;;;;;;;17.87;7.00;;;9.30;89.20;;;;;;5049965;28;20514;-65
2023/10/31 04:17:37;;;;;;;18.87;6.67;;;9.40;89.20;;;;;;5050412;28;20041;-65
2023/10/31 04:20:04;;;;;;;17.47;6.10;;;9.30;89.10;;;;;;5049874;28;20057;-64
2023/10/31 04:22:29;;;;;;;13.57;5.90;;;9.40;89.10;;;;;;5049702;28;20064;-65
2023/10/31 04:24:56;;;;;;;13.67;5.63;;;9.30;89.10;;;;;;5049651;28;20048;-64
2023/10/31 04:27:21;;;;;;;12.83;5.40;;;9.30;89.10;;;;;;5050077;28;20091;-64
2023/10/31 04:29:47;;;;;;;17.13;5.50;;;9.30;89.10;;;;;;5049464;28;20409;-64
2023/10/31 04:32:13;;;;;;;14.57;6.07;;;9.40;89.10;;;;;;5049899;28;20115;-65
2023/10/31 04:34:39;;;;;;;18.10;5.37;;;9.30;89.10;;;;;;5049539;28;20056;-64
2023/10/31 04:37:05;;;;;;;16.17;5.27;;;9.30;89.10;;;;;;5049447;28;20098;-64
2023/10/31 04:39:31;;;;;;;14.23;5.20;;;9.20;89.00;;;;;;5039422;28;20044;-64
2023/10/31 04:41:56;;;;;;;18.53;5.20;;;9.30;89.00;;;;;;5050205;28;20255;-64
2023/10/31 04:44:22;;;;;;;13.13;4.70;;;9.30;89.00;;;;;;5043346;28;20144;-65
2023/10/31 04:46:48;;;;;;;11.23;4.40;;;9.30;88.90;;;;;;5049214;28;20060;-64
2023/10/31 04:49:15;;;;;;;14.83;4.47;;;9.30;88.90;;;;;;5042420;28;20114;-64
2023/10/31 04:51:40;;;;;;;8.77;3.87;;;9.30;88.90;;;;;;5040761;28;20076;-64
2023/10/31 04:54:06;;;;;;;16.30;4.60;;;9.30;88.90;;;;;;5038049;28;20041;-64
2023/10/31 04:56:33;;;;;;;13.87;4.93;;;9.30;88.90;;;;;;5038333;28;20758;-64
2023/10/31 04:58:58;;;;;;;15.03;5.03;;;9.30;88.80;;;;;;5043217;28;20052;-64
2023/10/31 05:01:24;;;;;;;12.00;4.87;;;9.30;88.90;;;;;;5052526;28;20549;-65
2023/10/31 05:03:50;;;;;;;11.43;4.77;;;9.30;88.90;;;;;;5039616;28;20062;-64
2023/10/31 05:06:20;;;;;;;12.03;5.20;;;9.30;89.00;;;;;;5048794;28;20531;-64
2023/10/31 05:08:46;;;;;;;9.77;4.78;;;9.40;88.90;;;;;;5048831;28;20044;-64
2023/10/31 05:11:12;;;;;;;14.27;4.17;;;9.40;89.00;;;;;;5048790;28;20063;-64
2023/10/31 05:13:39;;;;;;;8.90;4.47;;;9.40;88.90;;;;;;5049117;28;20124;-64
2023/10/31 05:16:05;;;;;;;10.57;3.63;;;9.40;88.90;;;;;;5048954;28;20057;-64
2023/10/31 05:18:31;;;;;;;11.83;4.23;;;9.40;88.90;;;;;;5039938;28;20060;-64
2023/10/31 05:20:56;;;;;;;10.40;3.80;;;9.40;89.00;;;;;;5033517;28;20041;-64
2023/10/31 05:23:22;;;;;;;7.07;3.30;;;9.40;89.00;;;;;;5035416;28;20854;-64
2023/10/31 05:25:48;;;;;;;8.03;3.07;;;9.40;89.10;;;;;;5041899;28;20045;-64
2023/10/31 05:28:13;;;;;;;6.17;3.40;;;9.40;89.00;;;;;;5048106;28;20049;-64
2023/10/31 05:30:39;;;;;;;6.80;2.80;;;9.40;89.00;;;;;;5048569;28;20460;-64
2023/10/31 05:33:05;;;;;;;7.83;2.70;;;9.40;88.90;;;;;;5047158;28;20492;-63
2023/10/31 05:35:30;;;;;;;7.07;2.50;;;9.40;88.80;;;;;;5048821;28;20499;-64
2023/10/31 05:37:56;;;;;;;6.70;2.43;;;9.40;88.70;;;;;;5035492;28;20056;-64
2023/10/31 05:40:24;;;;;;;6.07;2.57;;;9.40;88.70;;;;;;5048352;28;20476;-64
2023/10/31 05:42:50;;;;;;;6.17;2.40;;;9.40;88.60;;;;;;5048509;28;20351;-64
2023/10/31 05:45:16;;;;;;;5.07;2.67;;;9.40;88.60;;;;;;5048508;28;20346;-64
2023/10/31 05:47:42;;;;;;;7.43;2.40;;;9.40;88.60;;;;;;5048682;28;20132;-64
2023/10/31 05:50:08;;;;;;;4.97;2.50;;;9.30;88.60;;;;;;5048908;28;20057;-64
2023/10/31 05:52:34;;;;;;;8.87;2.87;;;9.30;88.60;;;;;;5047350;28;20049;-64
2023/10/31 05:55:00;;;;;;;7.30;2.43;;;9.30;88.70;;;;;;5048238;28;20401;-64
2023/10/31 05:57:25;;;;;;;6.20;2.60;;;9.30;88.70;;;;;;5037179;28;20049;-64
2023/10/31 05:59:51;;;;;;;6.80;2.47;;;9.30;88.70;;;;;;5048718;28;20045;-64
2023/10/31 06:02:17;;;;;;;6.93;2.50;;;9.30;88.80;;;;;;5048241;28;20082;-63
2023/10/31 06:04:42;;;;;;;9.63;2.43;;;9.30;88.80;;;;;;5058642;28;20037;-64
2023/10/31 06:07:10;;;;;;;5.97;2.80;;;9.30;88.90;;;;;;5045078;28;20160;-64
2023/10/31 06:09:35;;;;;;;8.30;2.63;;;9.30;88.80;;;;;;5030731;28;20514;-64
2023/10/31 06:12:01;;;;;;;8.07;3.23;;;9.30;88.80;;;;;;5046577;28;20152;-64
2023/10/31 06:14:27;;;;;;;4.83;3.00;;;9.30;88.90;;;;;;5048743;28;20072;-63
2023/10/31 06:16:53;;;;;;;6.23;3.23;;;9.40;88.90;;;;;;5043453;28;20076;-63
2023/10/31 06:19:18;;;;;;;6.37;3.00;;;9.30;88.90;;;;;;5046227;28;20053;-63
2023/10/31 06:21:44;;;;;;;7.43;3.53;;;9.40;89.00;;;;;;5044792;28;20384;-64
2023/10/31 06:24:10;;;;;;;10.20;3.90;;;9.40;89.00;;;;;;5027281;28;20042;-64
2023/10/31 06:26:36;;;;;;;8.13;3.63;;;9.40;89.00;;;;;;5045131;28;20064;-63
2023/10/31 06:29:02;;;;;;;9.93;4.10;;;9.40;89.10;;;;;;5044414;28;20036;-64
2023/10/31 06:31:27;;;;;;;8.53;4.33;;;9.40;89.10;;;;;;5031489;28;20087;-63
2023/10/31 06:33:53;;;;;;;9.10;3.97;;;9.40;89.10;;;;;;5039912;28;20052;-64
2023/10/31 06:36:18;;;;;;;11.03;4.40;;;9.40;89.10;;;;;;5046018;28;20124;-63
2023/10/31 06:38:44;;;;;;;10.93;4.67;;;9.40;89.00;;;;;;5038435;28;20124;-63
2023/10/31 06:41:10;;;;;;;10.73;4.67;;;9.50;89.10;;;;;;5046350;28;20041;-63
2023/10/31 06:43:35;;;;;;;8.43;4.47;;;9.50;89.10;;;;;;5047767;28;20048;-63
2023/10/31 06:46:04;;;;;;;12.20;5.20;;;9.50;89.00;;;;;;5038287;28;20067;-63
2023/10/31 06:48:29;;;;;;;11.50;4.97;;;9.50;89.00;;;;;;5064877;28;20076;-63
2023/10/31 06:50:55;;;;;;;15.03;5.33;;;9.50;89.00;;;;;;5048924;28;20081;-63
2023/10/31 06:53:21;;;;;;;10.70;4.93;;;9.50;89.00;;;;;;5038575;28;20053;-64
2023/10/31 06:55:47;;;;;;;10.43;4.97;;;9.50;88.90;;;;;;5047084;28;20055;-63
2023/10/31 06:58:12;;;;;;;16.97;5.90;;;9.50;89.00;;;;;;5045134;28;20072;-63
2023/10/31 07:00:38;;;;;;;11.93;5.10;;;9.50;88.90;;;;;;5043734;28;20056;-64
2023/10/31 07:03:08;;;;;;;8.80;5.00;;;9.50;89.00;;;;;;5039504;28;20051;-64
2023/10/31 07:05:35;;;;;;;13.97;5.13;;;9.50;88.90;;;;;;5043006;28;20183;-63
2023/10/31 07:08:00;;;;;;;10.40;5.17;;;9.50;88.80;;;;;;5044527;28;20284;-64
2023/10/31 07:10:26;;;;;;;14.33;5.33;;;9.50;88.80;;;;;;5044079;28;20045;-63
2023/10/31 07:12:52;;;;;;;9.40;4.93;;;9.60;88.80;;;;;;5044595;28;20049;-64
2023/10/31 07:15:17;;;;;;;12.17;5.50;;;9.50;88.90;;;;;;5041508;28;20057;-64
2023/10/31 07:17:43;;;;;;;12.50;5.40;;;9.50;88.90;;;;;;5046897;28;20439;-64
2023/10/31 07:20:09;;;;;;;12.27;5.13;;;9.60;88.80;;;;;;5045060;28;20053;-64
2023/10/31 07:22:35;;;;;;;10.27;4.43;;;9.50;88.80;;;;;;5041047;28;20096;-64
2023/10/31 07:25:03;;;;;;;13.23;4.40;;;9.60;88.80;;;;;;5048706;28;20119;-64
2023/10/31 07:27:29;;;;;;;12.67;4.50;;;9.60;88.80;;;;;;5038012;28;20053;-64
2023/10/31 07:29:55;;;;;;;11.40;3.77;;;9.60;88.80;;;;;;5029075;28;20511;-64
2023/10/31 07:32:21;;;;;;;10.47;3.80;;;9.60;88.90;;;;;;5040914;28;20134;-63
2023/10/31 07:34:46;;;;;;;9.43;3.27;;;9.60;88.90;;;;;;5050507;28;20520;-63
2023/10/31 07:37:12;;;;;;;5.87;3.10;;;9.60;88.70;;;;;;5044248;28;20466;-63
2023/10/31 07:39:37;;;;;;;11.60;3.30;;;9.70;88.70;;;;;;5048928;28;20049;-64
2023/10/31 07:42:03;;;;;;;14.20;3.13;;;9.70;88.70;;;;;;5046363;28;20054;-64
2023/10/31 07:44:30;;;;;;;12.37;3.07;;;9.70;88.60;;;;;;5048835;28;20051;-64
2023/10/31 07:46:55;;;;;;;7.47;2.90;;;9.70;88.60;;;;;;5047796;28;20048;-63
2023/10/31 07:49:21;;;;;;;7.30;2.43;;;9.70;88.60;;;;;;5049350;28;20424;-63
2023/10/31 07:51:48;;;;;;;11.33;3.00;;;9.80;88.70;;;;;;5050291;28;20095;-64
2023/10/31 07:54:14;;;;;;;7.17;2.43;;;9.80;88.70;;;;;;5049736;28;20055;-64
2023/10/31 07:56:40;;;;;;;10.43;2.70;;;9.80;88.80;;;;;;5050486;28;20045;-63
2023/10/31 07:59:07;;;;;;;7.77;2.80;;;9.80;88.80;;;;;;5050305;28;20102;-64
2023/10/31 08:01:34;;;;;;;8.73;2.30;;;9.90;89.00;;;;;;5050547;28;20057;-64
2023/10/31 08:03:59;;;;;;;7.57;2.20;;;10.00;89.00;;;;;;5047111;28;20095;-64
2023/10/31 08:06:25;;;;;;;8.67;1.50;;;10.00;89.00;;;;;;5043250;28;20871;-63
2023/10/31 08:08:51;;;;;;;10.77;1.93;;;10.00;89.00;;;;;;5049559;28;20044;-64
2023/10/31 08:11:17;;;;;;;10.37;2.10;;;10.00;89.00;;;;;;5048845;28;20055;-64
2023/10/31 08:13:42;;;;;;;10.13;1.80;;;10.10;89.10;;;;;;5048848;28;20053;-63
2023/10/31 08:16:08;;;;;;;6.73;1.40;;;10.10;89.10;;;;;;5049113;28;20076;-64
2023/10/31 08:18:35;;;;;;;7.40;1.70;;;10.20;89.00;;;;;;5036672;28;20481;-64
2023/10/31 08:21:01;;;;;;;10.30;1.87;;;10.20;89.10;;;;;;5050525;28;20916;-65
2023/10/31 08:23:28;;;;;;;9.43;2.17;;;10.20;89.10;;;;;;5050072;28;20037;-64
2023/10/31 08:25:54;;;;;;;11.27;1.97;;;10.30;89.10;;;;;;5049960;28;20049;-64
2023/10/31 08:28:19;;;;;;;11.20;2.73;;;10.30;89.10;;;;;;5049982;28;20381;-63
2023/10/31 08:30:46;;;;;;;17.53;2.10;;;10.40;89.00;;;;;;5048866;28;20055;-64
2023/10/31 08:33:12;;;;;;;16.37;2.60;;;10.40;89.00;;;;;;5049907;28;20045;-64
2023/10/31 08:35:38;;;;;;;14.30;2.60;;;10.50;89.00;;;;;;5049864;28;20098;-64
2023/10/31 08:38:03;;;;;;;13.63;2.30;;;10.50;89.00;;;;;;5046366;28;20094;-64
2023/10/31 08:40:29;;;;;;;18.83;2.73;;;10.50;88.90;;;;;;5041082;28;20484;-64
2023/10/31 08:42:55;;;;;;;14.37;2.70;;;10.60;88.80;;;;;;5043713;28;20040;-65
2023/10/31 08:45:21;;;;;;;16.87;2.57;;;10.60;88.70;;;;;;5044634;28;20045;-65
2023/10/31 08:47:47;;;;;;;15.47;2.07;;;10.50;88.50;;;;;;5042277;28;20052;-64
2023/10/31 08:50:13;;;;;;;12.98;2.70;;;10.50;88.40;;;;;;5037587;28;20049;-64
2023/10/31 08:52:39;;;;;;;14.93;2.33;;;10.50;88.20;;;;;;5037634;28;20709;-64
2023/10/31 08:55:06;;;;;;;12.90;2.03;;;10.40;88.10;;;;;;5035437;28;20056;-64
2023/10/31 08:57:33;;;;;;;13.00;1.90;;;10.40;88.00;;;;;;5035286;28;20404;-64
2023/10/31 08:59:59;;;;;;;8.67;1.50;;;10.40;88.10;;;;;;5036733;28;20084;-64
2023/10/31 09:02:25;;;;;;;11.67;2.27;;;10.40;87.90;;;;;;5030904;28;20476;-64
2023/10/31 09:04:51;;;;;;;11.17;2.27;;;10.30;87.80;;;;;;5039423;28;20076;-64
2023/10/31 09:07:16;;;;;;;10.77;1.63;;;10.30;87.80;;;;;;5038758;28;20136;-65
2023/10/31 09:09:42;;;;;;;9.43;1.50;;;10.30;87.70;;;;;;5046049;28;20044;-64
2023/10/31 09:12:09;;;;;;;6.23;1.27;;;10.30;87.50;;;;;;5041297;28;20054;-64
2023/10/31 09:14:35;;;;;;;7.90;1.43;;;10.20;87.60;;;;;;5039199;28;20059;-64
2023/10/31 09:17:01;;;;;;;9.20;2.53;;;10.20;87.70;;;;;;5046250;28;20049;-64
2023/10/31 09:19:28;;;;;;;5.60;0.97;;;10.20;87.40;;;;;;5037840;28;20062;-64
2023/10/31 09:21:55;;;;;;;11.27;1.63;;;10.20;87.40;;;;;;5041394;28;20049;-64
2023/10/31 09:24:21;;;;;;;4.73;1.10;;;10.20;87.40;;;;;;5046273;28;20564;-64
2023/10/31 09:26:46;;;;;;;5.47;1.00;;;10.20;87.40;;;;;;5045970;28;20132;-64
2023/10/31 09:29:12;;;;;;;7.20;1.13;;;10.20;87.20;;;;;;5045307;28;20045;-63
2023/10/31 09:31:38;;;;;;;11.73;1.37;;;10.20;87.20;;;;;;5044208;28;20049;-63
2023/10/31 09:34:04;;;;;;;8.00;1.33;;;10.20;87.10;;;;;;5036745;28;20045;-64
2023/10/31 09:36:34;;;;;;;10.20;1.57;;;10.20;87.00;;;;;;5046069;28;20052;-64
2023/10/31 09:39:00;;;;;;;9.63;1.60;;;10.20;87.00;;;;;;5050752;28;20041;-64
2023/10/31 09:41:26;;;;;;;8.20;1.67;;;10.20;86.80;;;;;;5045623;28;20055;-64
2023/10/31 09:43:52;;;;;;;5.67;1.30;;;10.20;86.70;;;;;;5042718;28;20119;-64
2023/10/31 09:46:18;;;;;;;5.23;1.10;;;10.30;86.90;;;;;;5045659;28;20048;-65
2023/10/31 09:48:44;;;;;;;6.60;1.40;;;10.30;86.80;;;;;;5041159;28;20393;-64
2023/10/31 09:51:11;;;;;;;9.30;1.30;;;10.30;86.40;;;;;;5059269;28;20456;-64
2023/10/31 09:53:40;;;;;;;10.90;1.40;;;10.30;86.50;;;;;;5043993;28;20048;-64
2023/10/31 09:56:07;;;;;;;6.87;1.43;;;10.30;86.30;;;;;;5045176;28;20072;-64
2023/10/31 09:58:33;;;;;;;10.13;1.23;;;10.40;86.40;;;;;;5044668;28;20057;-64
2023/10/31 10:00:58;;;;;;;6.22;1.20;;;10.50;86.20;;;;;;5043611;28;20530;-65
2023/10/31 10:03:24;;;;;;;5.00;1.02;;;10.50;86.20;;;;;;5044518;28;20123;-64
2023/10/31 10:05:51;;;;;;;8.30;1.38;;;10.50;86.00;;;;;;5046017;28;20053;-64
2023/10/31 10:08:17;;;;;;;7.53;1.40;;;10.50;85.80;;;;;;5043399;28;20401;-64
2023/10/31 10:10:42;;;;;;;9.03;1.30;;;10.50;85.60;;;;;;5048265;28;20055;-64
2023/10/31 10:13:09;;;;;;;6.80;1.37;;;10.50;85.50;;;;;;5039203;28;20269;-64
2023/10/31 10:16:04;;;;;;;7.73;1.70;;;10.60;85.70;;;;;;5046082;28;20041;-64
2023/10/31 10:18:32;;;;;;;10.32;1.30;;;10.70;85.70;;;;;;5040501;28;20067;-64
2023/10/31 10:21:05;;;;;;;8.03;1.60;;;10.80;85.40;;;;;;5048323;28;20063;-64
2023/10/31 10:23:32;;;;;;;7.03;1.73;;;10.90;85.40;;;;;;5046889;28;20055;-64
2023/10/31 10:25:59;;;;;;;4.83;1.47;;;10.90;85.00;;;;;;5048630;28;20049;-64
2023/10/31 10:28:25;;;;;;;10.00;2.25;;;10.80;85.10;;;;;;5046357;28;20123;-64
2023/10/31 10:30:53;;;;;;;7.03;1.47;;;10.80;85.00;;;;;;5047138;28;20051;-64
2023/10/31 10:33:20;;;;;;;5.80;1.60;;;10.80;85.00;;;;;;5051252;28;20063;-64
2023/10/31 10:35:46;;;;;;;7.60;1.17;;;10.80;85.00;;;;;;5047969;28;20511;-64
2023/10/31 10:38:17;;;;;;;9.30;1.52;;;10.80;84.90;;;;;;5046261;28;20103;-64
2023/10/31 10:40:44;;;;;;;7.05;1.40;;;10.80;84.90;;;;;;5048425;28;20045;-65
2023/10/31 10:43:26;;;;;;;4.90;1.70;;;10.90;85.10;;;;;;5044839;28;20040;-64
2023/10/31 10:46:03;;;;;;;6.70;1.45;;;10.90;85.10;;;;;;5047139;28;20545;-64
2023/10/31 10:48:34;;;;;;;5.32;0.90;;;10.90;84.80;;;;;;5044726;28;20127;-64
2023/10/31 10:51:07;;;;;;;7.83;0.93;;;10.90;84.50;;;;;;5046202;28;20133;-64
2023/10/31 10:53:42;;;;;;;6.05;1.00;;;10.90;84.10;;;;;;5045410;28;20291;-64
2023/10/31 10:56:24;;;;;;;9.18;1.23;;;11.00;84.40;;;;;;5036343;28;20496;-64
2023/10/31 10:59:01;;;;;;;7.63;1.30;;;11.00;84.30;;;;;;5046116;28;20546;-64
2023/10/31 11:01:28;;;;;;;8.25;1.45;;;11.10;84.20;;;;;;5046014;28;20049;-64
2023/10/31 11:03:55;;;;;;;5.85;1.20;;;11.10;84.00;;;;;;5045120;28;20044;-64
2023/10/31 11:06:21;;;;;;;8.77;1.48;;;11.20;84.20;;;;;;5041285;28;20056;-65
2023/10/31 11:08:47;;;;;;;7.95;1.80;;;11.30;84.20;;;;;;5046941;28;20041;-64
2023/10/31 11:11:16;;;;;;;8.27;2.10;;;11.30;83.80;;;;;;5048201;28;20475;-64
2023/10/31 11:13:44;;;;;;;3.53;1.60;;;11.40;83.70;;;;;;5047820;28;20057;-64
2023/10/31 11:16:17;;;;;;;6.88;1.92;;;11.40;83.50;;;;;;5048146;28;20110;-64
2023/10/31 11:18:43;;;;;;;8.82;1.33;;;11.30;83.20;;;;;;5048002;28;20556;-64
2023/10/31 11:21:09;;;;;;;5.38;1.33;;;11.30;82.80;;;;;;5048500;28;20080;-64
2023/10/31 11:23:35;;;;;;;6.00;1.35;;;11.20;82.40;;;;;;5052213;28;20372;-64
2023/10/31 11:26:01;;;;;;;9.02;1.75;;;11.10;82.50;;;;;;5048719;28;20045;-64
2023/10/31 11:28:27;;;;;;;11.50;1.50;;;11.10;82.60;;;;;;5039431;28;20049;-64
2023/10/31 11:30:58;;;;;;;11.38;1.45;;;11.10;82.50;;;;;;5060128;28;20429;-64
2023/10/31 11:33:24;;;;;;;7.63;1.65;;;11.10;82.50;;;;;;5048492;28;20056;-64
2023/10/31 11:35:51;;;;;;;8.70;1.75;;;11.10;82.40;;;;;;5046958;28;20056;-64
2023/10/31 11:38:16;;;;;;;5.87;1.57;;;11.10;82.60;;;;;;5032749;28;20099;-64
2023/10/31 11:40:48;;;;;;;7.85;1.95;;;11.10;82.20;;;;;;5042418;28;20503;-64
2023/10/31 11:43:13;;;;;;;;;;;11.20;82.60;;;;;;5045520;28;21208;-64
2023/10/31 11:45:40;;;;;;;8.88;1.33;;;11.10;81.40;;;;;;5046905;28;20282;-64
2023/10/31 11:48:06;;;;;;;11.77;2.00;;;11.10;82.10;;;;;;5047539;28;20505;-64
2023/10/31 11:50:33;;;;;;;6.93;1.73;;;11.10;82.10;;;;;;5045825;28;20124;-64
2023/10/31 11:53:00;;;;;;;11.13;2.08;;;11.10;82.00;;;;;;5047508;28;20049;-65
2023/10/31 11:55:27;;;;;;;11.57;2.10;;;11.10;81.90;;;;;;5046284;28;20114;-64
2023/10/31 11:57:53;;;;;;;6.70;1.63;;;11.10;81.80;;;;;;5037323;28;20263;-64
2023/10/31 12:00:23;;;;;;;10.43;1.65;;;11.10;81.90;;;;;;5034273;28;20045;-64
2023/10/31 12:02:59;;;;;;;9.98;1.67;;;11.00;81.80;;;;;;5047565;28;20583;-64
2023/10/31 12:05:25;;;;;;;11.18;2.00;;;11.00;81.60;;;;;;5045983;28;20132;-64
2023/10/31 12:07:51;;;;;;;8.63;1.55;;;11.00;81.60;;;;;;5047637;28;20084;-65
2023/10/31 12:10:30;;;;;;;14.30;2.40;;;11.00;81.70;;;;;;5046648;28;20084;-64
2023/10/31 12:12:58;;;;;;;8.05;1.33;;;10.90;81.80;;;;;;5037004;28;20094;-64
2023/10/31 12:15:24;;;;;;;8.50;1.70;;;10.90;81.70;;;;;;5047174;28;20508;-64
2023/10/31 12:17:50;;;;;;;6.45;1.75;;;10.90;81.70;;;;;;5046652;28;20060;-65
2023/10/31 12:20:16;;;;;;;13.43;2.00;;;10.90;81.60;;;;;;5039747;28;20059;-64
2023/10/31 12:22:43;;;;;;;11.30;1.73;;;10.90;81.20;;;;;;5033957;28;20059;-64
2023/10/31 12:25:10;;;;;;;10.35;1.85;;;10.80;81.00;;;;;;5046992;28;20056;-64
2023/10/31 12:27:51;;;;;;;10.02;1.60;;;10.80;81.20;;;;;;5046070;28;20055;-64
2023/10/31 12:30:19;;;;;;;8.13;1.70;;;10.80;81.20;;;;;;5039094;28;20041;-64
2023/10/31 12:32:53;;;;;;;11.13;2.47;;;10.70;81.40;;;;;;5044910;28;20093;-64
2023/10/31 12:35:22;;;;;;;14.83;1.90;;;10.70;81.60;;;;;;5045311;28;20416;-65
2023/10/31 12:37:49;;;;;;;11.35;1.98;;;10.60;81.80;;;;;;5047132;28;20053;-65
2023/10/31 12:40:18;;;;;;;12.40;2.15;;;10.60;81.90;;;;;;5044703;28;20045;-64
2023/10/31 12:42:45;;;;;;;10.05;1.90;;;10.50;82.20;;;;;;5040555;28;20049;-64
2023/10/31 12:45:17;;;;;;;6.80;1.43;;;10.50;82.30;;;;;;5046991;28;20157;-65